Time;durP1;ratioP1;P1;durP2;ratioP2;P2;SDS_P1;SDS_P2;PMS_P1;PMS_P2;Temp;Humidity;BMP_temperature;BMP_pressure;BME280_temperature;BME280_humidity;BME280_pressure;Samples;Min_cycle;Max_cycle;Signal;HPM_P1;HPM_P2
2022/05/22 00:01:00;;;;;;;9.00;5.90;;;12.90;81.70;;;11.85;77.80;98169.09;4971709;28;20453;-80
2022/05/22 00:03:27;;;;;;;6.57;5.90;;;12.80;82.30;;;11.84;77.61;98160.13;4971411;28;20459;-80
2022/05/22 00:05:54;;;;;;;8.13;7.33;;;12.90;82.70;;;11.74;78.17;98157.91;4970102;28;21018;-77
2022/05/22 00:08:21;;;;;;;7.60;5.93;;;12.80;83.60;;;11.75;79.01;98156.84;4953833;28;20472;-80
2022/05/22 00:10:49;;;;;;;7.20;5.97;;;12.80;84.30;;;11.65;79.61;98159.22;4970160;28;20480;-78
2022/05/22 00:13:17;;;;;;;7.30;5.50;;;12.80;84.40;;;11.72;79.27;98148.34;4961012;28;20540;-80
2022/05/22 00:18:25;;;;;;;6.73;6.10;;;12.80;84.90;;;11.50;79.98;98148.69;4952855;29;20474;-79
2022/05/22 00:20:52;;;;;;;6.67;5.73;;;12.70;84.90;;;11.51;80.45;98153.06;4953807;29;20451;-81
2022/05/22 00:23:19;;;;;;;7.30;6.60;;;12.60;85.90;;;11.33;80.99;98151.09;4956316;29;20527;-76
2022/05/22 00:25:46;;;;;;;8.70;6.37;;;12.50;86.50;;;11.36;81.05;98147.13;4971677;29;20475;-79
2022/05/22 00:28:13;;;;;;;6.40;5.80;;;12.50;87.00;;;11.34;80.89;98150.03;4955892;29;20476;-75
2022/05/22 00:30:42;;;;;;;6.40;5.80;;;12.40;86.70;;;11.22;80.80;98130.13;4955122;28;20572;-75
2022/05/22 00:33:09;;;;;;;6.63;6.03;;;12.40;87.00;;;11.20;81.20;98158.22;4954618;29;20508;-78
2022/05/22 00:35:37;;;;;;;6.17;5.67;;;12.30;87.50;;;11.13;82.50;98156.59;4963874;28;20485;-80
2022/05/22 00:38:05;;;;;;;7.20;6.43;;;12.30;88.60;;;11.00;82.78;98160.22;4966556;28;20461;-79
2022/05/22 00:40:32;;;;;;;6.53;5.93;;;12.10;89.30;;;10.98;82.26;98155.00;4975702;28;20579;-76
2022/05/22 00:42:59;;;;;;;10.50;5.77;;;12.10;89.30;;;10.98;82.02;98155.00;4976886;28;20484;-79
2022/05/22 00:45:26;;;;;;;6.10;5.60;;;12.10;89.60;;;10.91;83.48;98154.22;4976946;28;20800;-79
2022/05/22 00:47:54;;;;;;;6.40;5.80;;;12.00;90.10;;;10.76;83.89;98162.56;4977282;28;20500;-79
2022/05/22 00:50:23;;;;;;;6.60;6.00;;;11.90;90.70;;;10.88;82.93;98162.75;4976456;28;20495;-73
2022/05/22 00:52:55;;;;;;;8.27;6.00;;;11.90;91.00;;;10.94;82.91;98161.06;4978114;28;20547;-80
2022/05/22 00:55:28;;;;;;;7.17;6.57;;;12.00;90.50;;;10.97;82.32;98155.22;4971347;28;20493;-76
2022/05/22 00:57:59;;;;;;;5.97;5.43;;;12.10;90.30;;;11.09;82.05;98168.91;4975764;28;20454;-80
2022/05/22 01:00:31;;;;;;;6.30;5.70;;;12.20;89.70;;;11.15;82.12;98171.56;4972948;28;20476;-79
2022/05/22 01:05:51;;;;;;;6.73;6.00;;;12.30;88.90;;;11.17;81.09;98155.97;4962614;28;20464;-79
2022/05/22 01:08:18;;;;;;;6.33;5.60;;;12.30;88.40;;;11.26;81.52;98156.53;4972003;28;20866;-80
2022/05/22 01:10:50;;;;;;;5.50;4.90;;;12.30;88.00;;;11.29;80.77;98161.50;4952639;28;20563;-80
2022/05/22 01:13:30;;;;;;;7.17;6.17;;;12.40;87.90;;;11.22;80.74;98154.47;4971723;28;20479;-81
2022/05/22 01:15:59;;;;;;;6.67;5.97;;;12.30;87.50;;;11.23;81.02;98156.97;4967946;28;20468;-78
2022/05/22 01:18:28;;;;;;;7.40;5.90;;;12.30;88.30;;;11.07;82.03;98141.25;4971678;28;20943;-81
2022/05/22 01:20:56;;;;;;;6.30;5.70;;;12.30;89.00;;;11.22;81.26;98155.31;4952927;28;20876;-78
2022/05/22 01:23:25;;;;;;;6.27;5.77;;;12.30;88.70;;;11.17;80.99;98157.84;4954234;28;21352;-81
2022/05/22 01:25:52;;;;;;;6.07;5.57;;;12.30;88.30;;;11.10;81.83;98147.06;4937242;28;20488;-80
2022/05/22 01:28:21;;;;;;;6.30;5.70;;;12.30;88.30;;;10.82;81.36;98096.03;4954120;28;20548;-80
2022/05/22 01:30:48;;;;;;;5.93;5.43;;;12.20;89.10;;;11.00;81.99;98152.94;4971033;28;20473;-80
2022/05/22 01:33:15;;;;;;;7.70;6.57;;;12.10;89.40;;;10.94;82.51;98145.66;4970843;28;20480;-80
2022/05/22 01:35:43;;;;;;;6.90;6.40;;;12.10;90.10;;;10.88;83.31;98144.66;4969831;28;20459;-81
2022/05/22 01:38:10;;;;;;;7.77;6.97;;;12.00;90.20;;;10.86;83.00;98140.53;4950066;28;20749;-79
2022/05/22 01:40:39;;;;;;;7.27;6.67;;;12.00;90.50;;;10.92;83.09;98145.06;4969619;28;20459;-78
2022/05/22 01:43:07;;;;;;;7.23;6.63;;;12.00;90.80;;;10.87;83.76;98150.28;4970058;28;20449;-79
2022/05/22 01:45:34;;;;;;;7.07;6.47;;;12.00;90.70;;;10.77;84.60;98148.84;4969110;28;21030;-80
2022/05/22 01:48:02;;;;;;;6.47;5.87;;;11.90;91.60;;;10.89;84.21;98159.00;4970769;28;20944;-79
2022/05/22 01:50:30;;;;;;;8.33;6.53;;;12.00;91.40;;;10.89;83.84;98161.72;4969685;28;20554;-80
2022/05/22 01:52:57;;;;;;;7.30;6.70;;;12.00;91.40;;;10.86;84.62;98168.38;4953227;28;20509;-81
2022/05/22 01:55:24;;;;;;;6.20;5.37;;;12.00;91.40;;;10.91;85.06;98149.63;4969051;28;20460;-77
2022/05/22 01:57:52;;;;;;;8.97;6.50;;;12.00;91.80;;;10.84;85.12;98153.41;4953416;28;20457;-80
2022/05/22 02:00:23;;;;;;;7.17;6.43;;;12.00;91.60;;;10.99;84.61;98147.72;4970153;28;20460;-80
2022/05/22 02:02:50;;;;;;;7.00;6.40;;;12.00;91.60;;;10.91;84.65;98148.81;4950886;28;20520;-80
2022/05/22 02:05:18;;;;;;;6.87;6.37;;;12.10;91.00;;;10.88;84.67;98151.94;4968786;28;20493;-79
2022/05/22 02:10:31;;;;;;;6.90;5.97;;;12.10;90.80;;;10.86;83.75;98154.84;4950554;28;20480;-79
2022/05/22 02:13:00;;;;;;;7.43;6.60;;;12.00;90.50;;;10.84;83.34;98150.69;4952555;28;20457;-78
2022/05/22 02:15:27;;;;;;;6.30;5.80;;;12.00;90.40;;;10.79;83.64;98150.50;4967390;28;20652;-79
2022/05/22 02:17:55;;;;;;;6.60;6.00;;;11.90;90.80;;;10.84;83.90;98137.19;4970806;28;20453;-81
2022/05/22 02:20:23;;;;;;;6.97;6.27;;;11.90;91.10;;;10.82;84.29;98137.41;4955559;28;20541;-78
2022/05/22 02:22:52;;;;;;;7.37;6.77;;;12.00;90.90;;;10.84;83.62;98137.19;4951393;29;20520;-76
2022/05/22 02:25:25;;;;;;;6.40;5.90;;;12.00;90.80;;;10.87;83.61;98136.78;4960239;29;20444;-74
2022/05/22 02:27:53;;;;;;;7.43;6.67;;;12.00;90.80;;;10.86;83.77;98140.53;4967592;28;20558;-79
2022/05/22 02:30:26;;;;;;;6.37;5.73;;;12.00;90.80;;;10.90;nan;98139.03;4972687;28;20572;-79
2022/05/22 02:32:53;;;;;;;6.67;6.17;;;12.00;90.30;;;10.87;82.70;98142.19;4964978;28;20447;-79
2022/05/22 02:35:21;;;;;;;7.30;6.23;;;12.00;90.00;;;10.87;82.24;98142.19;4957805;29;20446;-79
2022/05/22 02:37:51;;;;;;;6.00;5.10;;;12.00;89.10;;;10.85;82.22;98128.88;4949342;28;20548;-77
2022/05/22 02:40:22;;;;;;;11.13;6.23;;;12.00;88.80;;;10.90;82.06;98115.53;4970156;28;20532;-79
2022/05/22 02:42:51;;;;;;;6.23;5.57;;;12.00;88.30;;;10.70;81.75;98118.34;4952207;28;20505;-78
2022/05/22 02:45:24;;;;;;;7.37;5.67;;;11.90;88.10;;;10.71;81.34;98127.25;4969566;28;20457;-78
2022/05/22 02:47:51;;;;;;;6.50;5.60;;;11.90;88.20;;;10.68;81.61;98123.09;4945700;29;20489;-79
2022/05/22 02:50:23;;;;;;;7.23;5.87;;;11.90;87.70;;;10.63;82.00;98131.03;4949767;28;20973;-78
2022/05/22 02:52:50;;;;;;;6.27;5.63;;;11.80;87.50;;;10.44;82.22;98120.06;4951019;28;20474;-80
2022/05/22 02:55:19;;;;;;;6.67;5.30;;;11.80;88.00;;;10.60;82.22;98129.56;4948983;29;20509;-80
2022/05/22 02:57:47;;;;;;;6.77;6.10;;;11.80;88.40;;;10.44;82.10;98122.78;4955037;28;20491;-80
2022/05/22 03:00:19;;;;;;;8.23;5.70;;;11.70;88.30;;;10.53;82.53;98130.63;4955871;28;20456;-80
2022/05/22 03:02:48;;;;;;;6.40;5.80;;;11.70;89.30;;;10.66;81.94;98127.09;4969170;28;21012;-80
2022/05/22 03:05:15;;;;;;;6.40;5.80;;;11.80;88.20;;;10.62;81.62;98134.78;4969066;28;20544;-78
2022/05/22 03:07:43;;;;;;;8.00;5.40;;;11.80;88.20;;;10.58;82.04;98138.94;4968919;28;20453;-79
2022/05/22 03:10:13;;;;;;;5.30;4.90;;;11.80;88.50;;;10.55;81.76;98113.19;4970084;28;21058;-80
2022/05/22 03:12:41;;;;;;;6.93;5.87;;;11.70;87.80;;;10.68;80.96;98117.69;4951636;28;20536;-80
2022/05/22 03:15:11;;;;;;;6.70;6.00;;;11.80;87.20;;;10.64;81.67;98124.56;4951395;28;20574;-78
2022/05/22 03:17:39;;;;;;;6.20;5.57;;;11.80;87.60;;;10.60;81.85;98123.34;4967947;28;20567;-76
2022/05/22 03:20:10;;;;;;;6.90;5.40;;;11.80;87.90;;;10.63;81.30;98121.06;4956612;28;20557;-79
2022/05/22 03:22:37;;;;;;;6.03;5.43;;;11.80;87.60;;;10.63;81.39;98110.25;4948247;29;20449;-80
2022/05/22 03:25:05;;;;;;;5.30;4.80;;;11.80;87.80;;;10.67;80.70;98115.22;4949485;28;20877;-78
2022/05/22 03:27:32;;;;;;;5.97;5.47;;;11.80;86.80;;;10.73;80.73;98106.25;4970220;28;20528;-77
2022/05/22 03:29:59;;;;;;;7.03;5.63;;;11.90;86.80;;;10.75;80.04;98110.41;4971314;28;20564;-80
2022/05/22 03:32:26;;;;;;;10.10;5.20;;;11.90;86.20;;;10.68;81.21;98106.88;4972328;28;20547;-77
2022/05/22 03:34:53;;;;;;;7.30;6.07;;;11.90;86.70;;;10.89;80.10;98103.06;4952926;28;20539;-81
2022/05/22 03:37:24;;;;;;;6.57;5.60;;;11.90;86.80;;;10.85;79.73;98098.31;4950910;28;20453;-81
2022/05/22 03:39:52;;;;;;;6.37;5.40;;;11.90;86.50;;;10.90;80.07;98093.09;4960126;28;20464;-80
2022/05/22 03:42:19;;;;;;;8.40;5.57;;;12.00;86.40;;;10.91;79.38;98082.03;4968311;28;20490;-79
2022/05/22 03:44:47;;;;;;;6.40;5.80;;;12.00;85.70;;;10.91;79.00;98078.53;4966994;28;20467;-79
2022/05/22 03:47:14;;;;;;;9.00;5.10;;;12.00;85.90;;;10.77;79.98;98075.88;4967935;28;20548;-79
2022/05/22 03:49:41;;;;;;;6.03;5.53;;;12.00;86.00;;;10.82;80.11;98085.22;4952515;28;21028;-79
2022/05/22 03:52:08;;;;;;;6.47;5.43;;;11.90;86.10;;;10.78;79.47;98090.25;4968730;28;20493;-81
2022/05/22 03:54:36;;;;;;;6.17;5.67;;;11.90;85.60;;;10.72;80.18;98075.72;4969350;28;20465;-78
2022/05/22 03:57:05;;;;;;;6.07;5.60;;;11.90;85.90;;;10.77;79.81;98073.19;4950834;28;20460;-79
2022/05/22 03:59:32;;;;;;;5.90;5.30;;;11.90;85.60;;;10.84;79.86;98077.72;4969584;28;20968;-80
2022/05/22 04:01:59;;;;;;;6.10;5.50;;;11.90;85.70;;;10.92;79.72;98074.78;4969195;28;20452;-78
2022/05/22 04:04:26;;;;;;;5.80;5.20;;;12.00;85.80;;;10.99;78.97;98072.03;4948944;28;20632;-78
2022/05/22 04:06:53;;;;;;;5.97;5.43;;;12.10;85.20;;;10.93;79.34;98065.63;4971670;28;21038;-80
2022/05/22 04:09:21;;;;;;;6.93;6.23;;;12.00;85.10;;;10.95;79.04;98074.34;4954877;28;20457;-79
2022/05/22 04:11:49;;;;;;;6.53;5.80;;;12.10;85.20;;;11.01;79.70;98069.94;4971473;28;20950;-78
2022/05/22 04:14:19;;;;;;;6.03;5.50;;;12.10;85.30;;;11.42;78.17;98062.38;4969618;28;20519;-79
2022/05/22 04:16:47;;;;;;;6.00;5.50;;;12.40;84.60;;;11.51;77.73;98066.50;4969622;28;20488;-79
2022/05/22 04:19:15;;;;;;;6.30;5.73;;;12.50;84.00;;;11.52;77.10;98051.91;4973069;28;20546;-78
2022/05/22 04:21:43;;;;;;;5.90;5.40;;;12.70;83.40;;;11.74;76.59;98073.16;4954034;28;20484;-78
2022/05/22 04:26:57;;;;;;;6.80;6.30;;;13.00;82.80;;;11.64;76.68;98065.53;4971742;28;20796;-80
2022/05/22 04:29:25;;;;;;;6.10;5.60;;;13.00;82.30;;;11.77;76.92;98065.44;4947631;28;20541;-80
2022/05/22 04:31:52;;;;;;;9.80;6.27;;;12.90;82.60;;;12.15;74.97;98055.50;4934315;29;20481;-77
2022/05/22 04:34:19;;;;;;;6.13;5.53;;;13.20;82.20;;;12.22;74.99;98051.91;4952082;28;20450;-80
2022/05/22 04:36:46;;;;;;;6.57;5.97;;;13.40;81.60;;;12.21;75.01;98045.66;4962722;28;20462;-78
2022/05/22 04:39:13;;;;;;;6.43;5.70;;;13.40;81.50;;;12.81;72.79;98056.81;4972967;28;20455;-79
2022/05/22 04:41:40;;;;;;;6.23;5.67;;;13.80;80.60;;;13.81;68.92;98048.25;4954228;28;21043;-79
2022/05/22 04:44:08;;;;;;;5.77;5.23;;;14.70;78.90;;;14.59;65.77;98062.44;4971780;28;20552;-79
2022/05/22 04:46:36;;;;;;;6.23;5.40;;;15.70;76.50;;;14.67;65.08;98074.84;4970968;28;20449;-80
2022/05/22 04:49:03;;;;;;;7.13;5.70;;;16.10;74.50;;;14.78;64.48;98072.34;4971834;28;21087;-76
2022/05/22 04:51:30;;;;;;;6.23;5.73;;;16.30;73.50;;;14.40;65.78;98077.25;4953335;28;20525;-81
2022/05/22 04:53:59;;;;;;;6.00;5.50;;;16.20;73.00;;;14.05;67.01;98078.97;4953952;28;20463;-75
2022/05/22 04:56:26;;;;;;;6.27;5.20;;;15.60;73.90;;;14.51;65.41;98060.09;4953946;28;20508;-79
2022/05/22 04:58:53;;;;;;;6.30;5.80;;;16.10;73.10;;;14.10;66.06;98054.59;4971800;28;20556;-76
2022/05/22 05:01:22;;;;;;;6.07;5.47;;;15.80;73.20;;;14.10;66.78;98062.75;4970967;28;20463;-80
2022/05/22 05:03:49;;;;;;;5.47;4.90;;;15.70;73.60;;;14.54;65.70;98073.19;4970937;28;20552;-80
2022/05/22 05:06:16;;;;;;;5.87;5.40;;;16.20;73.00;;;16.10;60.72;98067.84;4970835;28;20446;-80
2022/05/22 05:08:43;;;;;;;5.63;5.13;;;17.20;71.80;;;17.04;57.08;98078.84;4955408;28;20555;-77
2022/05/22 05:11:12;;;;;;;5.10;4.70;;;18.30;68.60;;;16.75;57.86;98075.47;4971213;28;20501;-79
2022/05/22 05:13:40;;;;;;;5.83;5.33;;;18.60;66.80;;;16.23;59.47;98061.19;4973032;28;20550;-74
2022/05/22 05:16:10;;;;;;;5.90;5.23;;;18.20;66.80;;;17.25;56.35;98058.06;4968997;28;20462;-81
2022/05/22 05:18:39;;;;;;;7.23;5.13;;;18.60;66.20;;;17.54;55.65;98059.66;4954317;28;20553;-79
2022/05/22 05:21:09;;;;;;;5.93;5.43;;;18.70;65.60;;;18.88;51.72;98067.88;4969572;28;20538;-77
2022/05/22 05:23:37;;;;;;;5.90;5.30;;;19.60;63.90;;;18.04;52.99;98065.81;4971506;28;20460;-77
2022/05/22 05:26:05;;;;;;;5.10;4.80;;;19.90;62.50;;;16.99;55.83;98055.06;4970287;28;20450;-76
2022/05/22 05:28:33;;;;;;;5.53;5.13;;;19.00;62.50;;;16.93;56.45;98057.94;4972528;28;20698;-78
2022/05/22 05:31:01;;;;;;;5.70;5.20;;;18.90;62.90;;;17.52;55.12;98062.66;4971165;28;20482;-78
2022/05/22 05:33:28;;;;;;;5.23;4.73;;;19.00;63.10;;;18.57;51.83;98067.72;4976027;28;20449;-76
2022/05/22 05:35:56;;;;;;;5.77;5.20;;;19.70;62.10;;;18.26;52.34;98067.56;4951592;28;20900;-80
2022/05/22 05:38:24;;;;;;;5.40;4.90;;;19.90;60.60;;;18.86;51.26;98055.53;4971618;28;20949;-78
2022/05/22 05:40:51;;;;;;;5.80;4.70;;;20.50;60.40;;;18.37;52.22;98052.88;4970154;28;20497;-78
2022/05/22 05:43:19;;;;;;;5.90;5.50;;;19.90;60.00;;;18.67;51.64;98048.63;4970305;28;20503;-78
2022/05/22 05:45:46;;;;;;;5.33;4.83;;;20.10;60.10;;;18.07;52.74;98040.69;4968929;28;20452;-79
2022/05/22 05:48:13;;;;;;;5.10;4.80;;;19.80;60.00;;;17.81;53.50;98043.19;4971332;28;20462;-76
2022/05/22 05:50:43;;;;;;;5.77;4.90;;;19.70;60.10;;;17.25;55.00;98041.66;4952681;28;20572;-75
2022/05/22 05:53:11;;;;;;;8.23;5.00;;;19.30;60.40;;;17.92;53.68;98048.75;4953762;28;20457;-79
2022/05/22 05:55:38;;;;;;;6.03;5.63;;;19.40;60.90;;;18.51;51.13;98050.50;4951806;28;20476;-79
2022/05/22 05:58:06;;;;;;;8.50;5.40;;;19.90;59.30;;;18.66;50.47;98051.66;4970975;28;20882;-78
2022/05/22 06:00:33;;;;;;;5.70;5.20;;;20.30;58.60;;;18.91;49.69;98034.50;4969317;28;20484;-83
2022/05/22 06:03:01;;;;;;;5.80;5.20;;;20.60;58.50;;;19.27;48.50;98011.03;4953708;28;20453;-79
2022/05/22 06:05:28;;;;;;;5.33;4.90;;;21.20;58.10;;;19.48;48.49;98045.53;4964805;28;20469;-76
2022/05/22 06:07:57;;;;;;;5.57;5.07;;;21.20;57.30;;;19.25;48.60;98036.75;4953981;28;20632;-79
2022/05/22 06:10:26;;;;;;;4.83;4.40;;;21.10;56.60;;;19.04;49.10;98040.56;4970952;28;20462;-72
2022/05/22 06:12:53;;;;;;;5.33;4.87;;;21.30;56.40;;;19.34;48.82;98028.03;4971284;28;20448;-79
2022/05/22 06:15:20;;;;;;;5.30;4.80;;;21.30;56.30;;;18.44;50.64;98038.16;4970120;28;20464;-73
2022/05/22 06:17:48;;;;;;;5.40;4.90;;;20.50;56.50;;;17.22;54.67;98042.19;4952222;28;20862;-81
2022/05/22 06:20:20;;;;;;;5.43;5.00;;;19.40;58.20;;;16.53;57.48;98029.94;4971039;28;20864;-79
2022/05/22 06:22:47;;;;;;;6.03;5.50;;;18.50;60.10;;;16.04;58.23;98027.94;4970916;28;20797;-81
2022/05/22 06:25:17;;;;;;;5.70;5.20;;;17.50;61.20;;;16.01;57.35;98034.72;4965170;28;20540;-76
2022/05/22 06:27:46;;;;;;;5.37;4.80;;;17.10;61.70;;;15.95;58.26;98041.16;4956367;28;20461;-83
2022/05/22 06:30:18;;;;;;;5.47;4.97;;;16.90;62.30;;;15.94;58.22;98034.06;4971657;28;20526;-81
2022/05/22 06:32:45;;;;;;;4.60;4.20;;;16.90;62.50;;;15.97;58.91;98030.84;4953395;28;21155;-79
2022/05/22 06:35:15;;;;;;;5.13;4.70;;;17.00;63.30;;;16.08;58.03;98035.38;4970961;28;20570;-83
2022/05/22 06:37:42;;;;;;;5.33;4.83;;;17.00;63.30;;;16.06;57.72;98040.25;4969983;28;20489;-82
2022/05/22 06:40:10;;;;;;;5.07;4.57;;;17.00;62.60;;;16.07;57.30;98036.44;4954099;28;20460;-82
2022/05/22 06:42:42;;;;;;;4.93;4.43;;;17.00;62.40;;;16.33;55.91;98035.97;4953434;28;20543;-75
2022/05/22 06:45:14;;;;;;;8.23;5.20;;;17.30;61.80;;;16.19;56.16;98030.06;4972184;28;20507;-82
2022/05/22 06:47:44;;;;;;;7.63;5.27;;;17.30;61.40;;;16.30;56.53;98020.91;4972641;28;20461;-72
2022/05/22 06:50:14;;;;;;;4.03;3.60;;;17.30;61.70;;;16.50;55.61;98019.56;4973869;28;20513;-82
2022/05/22 06:52:42;;;;;;;4.83;4.20;;;17.40;61.20;;;16.62;55.51;98005.78;4956049;28;20488;-78
2022/05/22 06:55:11;;;;;;;3.70;3.43;;;17.60;61.40;;;16.53;54.44;98016.31;4971078;28;20453;-84
2022/05/22 06:57:40;;;;;;;4.87;3.70;;;17.70;60.50;;;16.57;54.19;98017.44;4952173;28;20566;-83
2022/05/22 07:00:14;;;;;;;4.00;3.60;;;17.60;60.10;;;16.66;54.24;98018.66;4971652;28;20455;-81
2022/05/22 07:02:42;;;;;;;4.83;3.80;;;17.60;60.10;;;16.60;53.88;98016.94;4969723;28;20899;-72
2022/05/22 07:05:12;;;;;;;5.43;3.70;;;17.60;60.30;;;16.77;53.38;98029.69;4976428;28;20855;-79
2022/05/22 07:07:39;;;;;;;5.53;3.60;;;17.70;59.70;;;16.84;52.91;98028.41;4969131;28;20450;-82
2022/05/22 07:10:08;;;;;;;4.60;4.00;;;17.80;59.40;;;16.92;53.35;98026.28;4971429;28;20469;-79
2022/05/22 07:12:35;;;;;;;4.13;3.73;;;17.90;59.70;;;16.82;53.38;98016.09;4970514;28;20483;-79
2022/05/22 07:15:03;;;;;;;3.97;3.57;;;17.80;59.40;;;16.87;53.01;98013.41;4969822;28;20491;-83
2022/05/22 07:17:32;;;;;;;3.60;3.40;;;17.80;59.30;;;17.18;52.74;98024.66;4969336;28;20456;-83
2022/05/22 07:19:59;;;;;;;5.63;4.23;;;18.00;59.50;;;17.10;52.03;98014.22;4972160;28;20484;-81
2022/05/22 07:22:27;;;;;;;4.10;3.70;;;18.10;58.60;;;17.07;51.69;97995.66;4970036;28;21062;-83
2022/05/22 07:24:54;;;;;;;4.20;3.80;;;18.20;58.60;;;17.19;51.80;97993.53;4968989;28;20465;-81
2022/05/22 07:27:21;;;;;;;5.50;3.57;;;18.20;58.50;;;17.01;51.28;97958.44;4952459;28;20539;-79
2022/05/22 07:29:49;;;;;;;3.47;3.17;;;18.30;58.10;;;17.33;50.68;97993.97;4953431;28;20837;-78
2022/05/22 07:32:16;;;;;;;4.23;3.47;;;18.30;57.90;;;17.48;51.28;97995.97;4976649;28;21070;-84
2022/05/22 07:34:48;;;;;;;3.43;2.80;;;18.40;58.20;;;17.28;50.80;97986.53;4970712;28;20541;-82
2022/05/22 07:37:16;;;;;;;3.40;3.10;;;18.30;57.40;;;17.53;51.05;97990.56;4971312;28;20467;-79
2022/05/22 07:39:42;;;;;;;2.80;2.57;;;18.40;58.00;;;17.64;49.22;97987.91;4970683;28;20940;-82
2022/05/22 07:42:10;;;;;;;4.13;3.20;;;18.60;56.80;;;17.72;49.13;97994.78;4974111;28;20472;-83
2022/05/22 07:44:40;;;;;;;5.10;3.40;;;18.60;56.60;;;17.53;49.21;97995.19;4973331;28;20475;-82
2022/05/22 07:47:07;;;;;;;3.50;2.97;;;18.60;56.50;;;17.60;48.68;97987.63;4972465;28;20569;-81
2022/05/22 07:52:21;;;;;;;6.50;2.80;;;18.50;55.90;;;17.69;49.21;97988.75;4957118;28;20480;-78
2022/05/22 07:54:48;;;;;;;4.03;2.67;;;18.60;56.60;;;17.90;47.87;97985.34;4943087;28;20595;-74
2022/05/22 07:57:15;;;;;;;3.00;2.80;;;18.70;56.00;;;17.54;47.71;97937.59;4956818;28;20445;-83
2022/05/22 07:59:42;;;;;;;3.17;2.63;;;18.80;55.30;;;17.76;48.16;97990.47;4974827;28;20462;-76
2022/05/22 08:02:12;;;;;;;4.77;2.57;;;18.70;55.30;;;17.80;46.20;97981.44;4957278;28;20448;-84
2022/05/22 08:04:40;;;;;;;2.63;2.43;;;18.70;54.10;;;17.78;46.89;97980.88;4980778;28;20437;-80
2022/05/22 08:07:08;;;;;;;2.87;2.50;;;18.70;54.30;;;17.91;46.89;97982.34;4988862;28;20491;-75
2022/05/22 08:09:36;;;;;;;4.07;2.57;;;18.80;54.60;;;17.84;47.02;97976.28;4971886;28;20464;-80
2022/05/22 08:12:05;;;;;;;3.70;2.73;;;18.80;54.40;;;17.95;46.29;97977.16;4971215;28;20932;-83
2022/05/22 08:14:33;;;;;;;4.43;2.10;;;18.80;54.10;;;18.06;46.36;97967.97;4973864;28;20457;-83
2022/05/22 08:17:00;;;;;;;4.73;2.43;;;19.00;54.50;;;18.11;46.20;97967.97;4973341;28;20552;-82
2022/05/22 08:19:27;;;;;;;4.17;2.93;;;19.10;53.90;;;18.23;46.58;97972.41;4975083;28;20459;-81
2022/05/22 08:21:54;;;;;;;6.70;3.17;;;19.10;54.40;;;18.16;45.63;97966.38;4975156;28;20453;-80
2022/05/22 08:24:21;;;;;;;3.63;2.90;;;19.10;53.50;;;17.89;45.77;97935.31;4964029;28;20489;-74
2022/05/22 08:26:51;;;;;;;4.30;3.27;;;19.10;53.40;;;18.37;46.20;97950.88;4981077;28;20469;-82
2022/05/22 08:29:18;;;;;;;5.10;3.13;;;19.20;54.00;;;18.67;46.52;97952.88;4960221;28;20469;-82
2022/05/22 08:31:45;;;;;;;4.07;3.20;;;19.40;54.70;;;18.76;45.91;97946.88;4955627;28;20504;-82
2022/05/22 08:34:14;;;;;;;2.90;2.60;;;19.60;54.40;;;18.80;45.97;97947.97;4973405;28;20445;-83
2022/05/22 08:36:41;;;;;;;2.83;2.60;;;19.70;54.30;;;19.19;44.09;97947.50;4966978;28;20537;-82
2022/05/22 08:39:08;;;;;;;2.43;2.23;;;19.90;53.40;;;19.32;42.70;97939.81;4974585;28;20461;-82
2022/05/22 08:41:45;;;;;;;2.70;2.43;;;20.10;52.20;;;19.07;42.74;97936.00;4972895;28;20742;-83
2022/05/22 08:44:17;;;;;;;3.93;2.50;;;20.10;51.50;;;19.11;43.28;97934.34;4956053;28;20490;-82
2022/05/22 08:46:59;;;;;;;2.87;2.63;;;20.00;51.90;;;19.33;45.04;97933.22;4955372;28;20550;-80
2022/05/22 08:49:33;;;;;;;3.30;2.60;;;20.20;53.70;;;19.38;44.61;97936.78;4937887;29;20475;-80
2022/05/22 08:52:10;;;;;;;2.10;1.90;;;20.20;53.30;;;19.25;43.75;97932.69;4953193;28;20474;-84
2022/05/22 08:54:42;;;;;;;5.27;2.37;;;20.20;52.40;;;19.01;43.25;97921.47;4954065;29;20450;-82
2022/05/22 09:00:11;;;;;;;2.50;2.30;;;20.10;51.10;;;18.88;44.02;97933.75;4973385;28;20480;-83
2022/05/22 09:02:47;;;;;;;3.00;2.40;;;19.80;51.90;;;19.06;43.98;97924.19;4969499;28;20475;-78
2022/05/22 09:05:20;;;;;;;2.77;2.10;;;19.90;52.20;;;19.25;42.71;97924.47;4972652;28;20931;-81
2022/05/22 09:07:57;;;;;;;3.00;2.10;;;20.10;51.60;;;19.14;43.12;97925.56;4973272;28;20485;-84
2022/05/22 09:10:46;;;;;;;3.00;2.50;;;20.10;51.50;;;18.93;42.49;97927.44;4974488;28;20437;-73
2022/05/22 09:13:25;;;;;;;2.00;1.90;;;19.90;50.70;;;18.98;42.66;97922.00;4974986;28;20498;-82
2022/05/22 09:16:11;;;;;;;2.30;1.80;;;19.80;50.80;;;18.76;41.97;97924.97;4969855;28;20478;-83
2022/05/22 09:18:47;;;;;;;4.30;2.40;;;19.70;50.10;;;18.75;42.36;97928.81;4976577;28;20544;-84
2022/05/22 09:21:26;;;;;;;2.30;2.00;;;19.70;50.60;;;18.93;41.93;97925.53;4979974;28;20457;-78
2022/05/22 09:24:01;;;;;;;2.63;2.13;;;19.80;50.20;;;18.92;41.78;97902.00;4984529;28;20539;-78
2022/05/22 09:26:43;;;;;;;3.20;2.13;;;19.90;50.30;;;19.00;42.07;97916.25;4968468;28;20454;-75
2022/05/22 09:29:47;;;;;;;3.00;2.10;;;19.90;50.20;;;19.07;41.76;97916.81;4957440;28;20502;-82
2022/05/22 09:32:32;;;;;;;3.00;2.07;;;20.00;50.20;;;19.31;42.07;97902.56;4971217;28;20483;-78
2022/05/22 09:35:13;;;;;;;3.57;2.80;;;20.10;50.50;;;19.49;42.09;97904.75;4972913;28;20524;-84
2022/05/22 09:37:53;;;;;;;4.67;1.80;;;20.30;50.60;;;19.90;38.74;97897.50;4963597;28;20496;-81
2022/05/22 09:40:31;;;;;;;1.53;1.40;;;20.70;48.80;;;19.92;39.32;97898.06;4978821;28;20500;-76
2022/05/22 09:43:27;;;;;;;2.90;1.53;;;20.80;48.60;;;20.29;38.61;97888.59;4970847;28;20536;-82
2022/05/22 09:46:14;;;;;;;2.57;1.73;;;21.00;48.80;;;20.44;38.27;97876.69;4969461;28;20678;-83
2022/05/22 09:49:00;;;;;;;4.23;2.07;;;21.20;48.70;;;21.11;37.62;97880.09;4960057;28;20552;-83
2022/05/22 09:51:38;;;;;;;3.90;1.90;;;21.70;48.80;;;20.87;37.37;97876.19;4970720;28;20459;-82
2022/05/22 09:54:45;;;;;;;2.30;1.70;;;21.90;47.80;;;20.70;37.79;97870.22;4953331;28;20452;-82
2022/05/22 09:57:32;;;;;;;2.30;1.83;;;21.60;48.00;;;20.85;38.34;97867.41;4950653;28;20548;-82
2022/05/22 10:00:09;;;;;;;2.77;1.73;;;21.60;48.40;;;20.85;38.00;97872.91;4958661;28;20480;-81
2022/05/22 10:02:50;;;;;;;3.73;1.90;;;21.70;48.30;;;20.38;39.28;97859.44;4969781;28;20502;-81
2022/05/22 10:05:32;;;;;;;4.73;2.10;;;21.50;48.40;;;20.41;39.76;97876.47;4970780;28;20547;-83
2022/05/22 10:08:09;;;;;;;1.87;1.70;;;21.40;49.40;;;20.12;40.32;97866.19;4949569;28;20468;-84
2022/05/22 10:10:45;;;;;;;3.83;3.10;;;21.20;49.00;;;20.06;40.14;97874.44;4952469;28;20506;-82
2022/05/22 10:13:26;;;;;;;3.90;2.13;;;21.00;49.00;;;19.93;39.84;97875.03;4969120;28;20514;-83
2022/05/22 10:16:10;;;;;;;2.67;1.97;;;20.80;48.70;;;19.75;40.15;97857.28;4966614;28;20457;-83
2022/05/22 10:18:55;;;;;;;2.43;2.23;;;20.70;48.40;;;19.76;40.50;97870.69;4970467;28;20546;-78
2022/05/22 10:21:28;;;;;;;3.40;2.50;;;20.70;48.80;;;19.73;40.73;97868.50;4964658;28;20452;-84
2022/05/22 10:24:15;;;;;;;2.50;2.30;;;20.60;48.90;;;19.75;40.90;97863.56;4952328;28;20478;-83
2022/05/22 10:27:00;;;;;;;2.50;2.30;;;20.50;49.10;;;19.95;41.85;97861.88;4950656;29;20461;-82
2022/05/22 10:29:41;;;;;;;2.13;1.93;;;20.70;49.60;;;19.94;40.03;97866.53;4970094;28;20463;-82
2022/05/22 10:32:15;;;;;;;2.60;1.80;;;20.80;48.70;;;20.25;39.12;97857.34;4969330;28;20484;-79
2022/05/22 10:34:49;;;;;;;2.67;2.43;;;21.00;48.40;;;20.47;38.67;97854.19;4973550;28;20473;-77
2022/05/22 10:37:24;;;;;;;2.50;2.13;;;21.20;47.90;;;20.70;38.98;97845.50;4962010;28;20580;-81
2022/05/22 10:39:52;;;;;;;3.50;2.40;;;21.40;48.20;;;20.70;38.83;97848.25;4973671;28;20454;-83
2022/05/22 10:45:21;;;;;;;2.83;2.53;;;21.50;48.40;;;20.62;39.82;97841.44;4953554;28;20532;-83
2022/05/22 10:47:49;;;;;;;2.60;2.40;;;21.50;48.70;;;20.50;40.14;97844.56;4969588;28;20456;-81
2022/05/22 10:50:25;;;;;;;3.53;2.20;;;21.30;48.80;;;20.33;39.21;97834.78;4954161;28;20492;-83
2022/05/22 10:52:55;;;;;;;3.80;2.67;;;21.30;49.00;;;20.48;39.57;97830.31;4970739;28;20480;-82